Terminal Aerodrome Forecast
Issued by NWS Wilmington, NC

Home | Current Version | Previous Version | Text Only | Print | Product List | Glossary On
Versions: 1 2 3 4 5 6 7 8 9 10 11 12 13 14 15 16 17 18 19
000
FTUS42 KILM 300539
TAFILM
TAF
KILM 300539Z 3006/3106 33003KT P6SM BKN120
     FM301030 01006KT P6SM BKN006 BKN020
     FM301300 02009KT P6SM SCT025 BKN180
      TEMPO 3018/3022 3SM -TSRA BKN025CB
     FM310200 00000KT P6SM BKN200=

USA.gov is the U.S. government's official web portal to all federal, state and local government web resources and services.